createdAt,value
2017-10-14T00:01:28.828Z,102135.34
2017-10-14T00:03:57.999Z,102135.02
2017-10-14T00:06:26.351Z,102141.66
2017-10-14T00:08:54.992Z,102139.41
2017-10-14T00:11:24.152Z,102144.98
2017-10-14T00:13:53.176Z,102140.27
2017-10-14T00:16:22.046Z,102139.63
2017-10-14T00:18:51.649Z,102141.92
2017-10-14T00:21:20.877Z,102132.27
2017-10-14T00:23:49.954Z,102129.39
2017-10-14T00:26:19.029Z,102138.09
2017-10-14T00:28:48.616Z,102131.48
2017-10-14T00:31:17.196Z,102131.96
2017-10-14T00:33:47.370Z,102126.89
2017-10-14T00:36:15.719Z,102129.81
2017-10-14T00:38:44.918Z,102126.47
2017-10-14T00:41:17.118Z,102120.45
2017-10-14T00:43:45.995Z,102119.38
2017-10-14T00:46:14.366Z,102120.85
2017-10-14T00:48:42.738Z,102128.70
2017-10-14T00:51:12.199Z,102124.63
2017-10-14T00:53:42.162Z,102120.72
2017-10-14T00:56:11.908Z,102116.94
2017-10-14T00:58:40.371Z,102126.66
2017-10-14T01:01:09.611Z,102121.63
2017-10-14T01:03:38.809Z,102127.66
2017-10-14T01:06:07.951Z,102129.02
2017-10-14T01:08:37.046Z,102123.06
2017-10-14T01:11:06.169Z,102122.76
2017-10-14T01:13:35.138Z,102129.59
2017-10-14T01:16:04.936Z,102126.36
2017-10-14T01:18:33.321Z,102130.05
2017-10-14T01:21:01.672Z,102126.66
2017-10-14T01:23:30.972Z,102132.48
2017-10-14T01:25:59.556Z,102135.36
2017-10-14T01:28:28.731Z,102133.22
2017-10-14T01:30:57.712Z,102130.19
2017-10-14T01:33:27.409Z,102133.28
2017-10-14T01:35:55.763Z,102129.56
2017-10-14T01:38:24.105Z,102130.66
2017-10-14T01:40:53.133Z,102125.02
2017-10-14T01:43:21.483Z,102130.50
2017-10-14T01:45:49.814Z,102128.25
2017-10-14T01:48:18.913Z,102122.38
2017-10-14T01:50:47.294Z,102119.00
2017-10-14T01:53:15.638Z,102114.17
2017-10-14T01:55:44.331Z,102117.28
2017-10-14T01:58:12.669Z,102116.93
2017-10-14T02:00:41.013Z,102112.48
2017-10-14T02:03:09.703Z,102115.41
2017-10-14T02:05:38.070Z,102113.24
2017-10-14T02:08:07.413Z,102111.53
2017-10-14T02:10:35.871Z,102109.83
2017-10-14T02:13:05.157Z,102111.98
2017-10-14T02:15:33.520Z,102113.64
2017-10-14T02:18:02.786Z,102113.45
2017-10-14T02:20:32.342Z,102115.28
2017-10-14T02:23:01.513Z,102114.73
2017-10-14T02:25:30.685Z,102125.35
2017-10-14T02:27:59.979Z,102111.98
2017-10-14T02:30:28.859Z,102107.85
2017-10-14T02:32:57.960Z,102114.53
2017-10-14T02:35:27.254Z,102108.83
2017-10-14T02:37:55.601Z,102108.98
2017-10-14T02:40:24.953Z,102104.03
2017-10-14T02:42:53.305Z,102101.87
2017-10-14T02:45:21.685Z,102102.35
2017-10-14T02:47:50.056Z,102103.45
2017-10-14T02:50:19.249Z,102105.34
2017-10-14T02:52:49.236Z,102101.81
2017-10-14T02:55:17.710Z,102103.58
2017-10-14T02:57:46.838Z,102096.20
2017-10-14T03:00:16.954Z,102097.88
2017-10-14T03:02:46.232Z,102098.03
2017-10-14T03:05:16.317Z,102107.18
2017-10-14T03:07:45.785Z,102111.30
2017-10-14T03:10:15.635Z,102112.79
2017-10-14T03:12:44.018Z,102117.94
2017-10-14T03:15:13.088Z,102119.50
2017-10-14T03:17:42.838Z,102113.25
2017-10-14T03:20:11.228Z,102110.80
2017-10-14T03:22:39.621Z,102117.48
2017-10-14T03:25:10.580Z,102116.46
2017-10-14T03:27:39.781Z,102111.17
2017-10-14T03:30:09.483Z,102117.73
2017-10-14T03:32:39.442Z,102123.94
2017-10-14T03:35:09.381Z,102113.12
2017-10-14T03:37:39.936Z,102104.64
2017-10-14T03:40:09.392Z,102119.05
2017-10-14T03:42:37.725Z,102118.20
2017-10-14T03:45:06.070Z,102110.82
2017-10-14T03:47:36.724Z,102102.67
2017-10-14T03:50:05.108Z,102119.27
2017-10-14T03:52:33.470Z,102109.25
2017-10-14T03:55:02.394Z,102104.92
2017-10-14T03:57:31.341Z,102107.87
2017-10-14T04:00:00.887Z,102106.90
2017-10-14T04:02:30.277Z,102104.74
2017-10-14T04:04:59.397Z,102096.41
2017-10-14T04:07:27.855Z,102099.64
2017-10-14T04:09:57.342Z,102102.62
2017-10-14T04:12:28.418Z,102098.20
2017-10-14T04:14:58.158Z,102090.43
2017-10-14T04:17:26.580Z,102094.07
2017-10-14T04:19:56.042Z,102082.36
2017-10-14T04:22:25.307Z,102082.69
2017-10-14T04:24:54.071Z,102085.37
2017-10-14T04:27:22.443Z,102085.85
2017-10-14T04:29:51.492Z,102082.94
2017-10-14T04:32:22.166Z,102081.98
2017-10-14T04:34:50.518Z,102090.82
2017-10-14T04:37:20.559Z,102088.81
2017-10-14T04:39:50.239Z,102081.31
2017-10-14T04:42:20.592Z,102083.64
2017-10-14T04:44:49.039Z,102085.55
2017-10-14T04:47:19.532Z,102087.77
2017-10-14T04:49:48.860Z,102083.52
2017-10-14T04:52:18.499Z,102089.53
2017-10-14T04:54:47.795Z,102086.88
2017-10-14T04:57:17.037Z,102087.58
2017-10-14T04:59:46.163Z,102088.31
2017-10-14T05:02:15.498Z,102093.33
2017-10-14T05:04:44.272Z,102091.53
2017-10-14T05:07:13.299Z,102094.13
2017-10-14T05:09:42.796Z,102091.10
2017-10-14T05:12:11.483Z,102088.74
2017-10-14T05:14:40.526Z,102096.83
2017-10-14T05:17:11.066Z,102090.58
2017-10-14T05:19:40.807Z,102094.03
2017-10-14T05:22:10.549Z,102095.70
2017-10-14T05:24:40.561Z,102094.20
2017-10-14T05:27:08.899Z,102092.36
2017-10-14T05:29:38.515Z,102093.37
2017-10-14T05:32:10.082Z,102096.15
2017-10-14T05:34:39.953Z,102093.63
2017-10-14T05:37:09.006Z,102099.33
2017-10-14T05:39:37.395Z,102104.09
2017-10-14T05:42:06.217Z,102105.73
2017-10-14T05:44:34.587Z,102098.24
2017-10-14T05:47:05.863Z,102096.67
2017-10-14T05:49:34.225Z,102097.81
2017-10-14T05:52:04.362Z,102105.86
2017-10-14T05:54:36.232Z,102108.13
2017-10-14T05:57:04.655Z,102112.24
2017-10-14T05:59:33.425Z,102114.86
2017-10-14T06:02:01.853Z,102117.39
2017-10-14T06:04:30.910Z,102120.41
2017-10-14T06:06:59.519Z,102123.95
2017-10-14T06:09:27.897Z,102122.24
2017-10-14T06:11:57.066Z,102123.38
2017-10-14T06:14:26.599Z,102121.96
2017-10-14T06:16:55.205Z,102125.40
2017-10-14T06:19:24.182Z,102123.08
2017-10-14T06:21:54.036Z,102121.98
2017-10-14T06:24:22.433Z,102120.30
2017-10-14T06:26:51.639Z,102120.91
2017-10-14T06:29:21.656Z,102121.84
2017-10-14T06:31:50.648Z,102123.68
2017-10-14T06:34:19.011Z,102131.28
2017-10-14T06:36:47.352Z,102135.63
2017-10-14T06:39:16.474Z,102133.94
2017-10-14T06:41:45.906Z,102138.54
2017-10-14T06:44:14.870Z,102135.16
2017-10-14T06:46:43.837Z,102142.66
2017-10-14T06:49:12.190Z,102140.31
2017-10-14T06:51:40.794Z,102144.33
2017-10-14T06:54:09.945Z,102152.47
2017-10-14T06:56:39.064Z,102160.86
2017-10-14T06:59:07.386Z,102160.23
2017-10-14T07:01:35.922Z,102169.63
2017-10-14T07:04:04.349Z,102167.48
2017-10-14T07:06:32.697Z,102169.83
2017-10-14T07:09:02.868Z,102170.15
2017-10-14T07:11:31.984Z,102173.50
2017-10-14T07:14:00.329Z,102177.21
2017-10-14T07:16:30.183Z,102177.84
2017-10-14T07:18:59.316Z,102180.73
2017-10-14T07:21:27.932Z,102184.91
2017-10-14T07:23:57.543Z,102188.53
2017-10-14T07:26:26.157Z,102192.47
2017-10-14T07:28:54.522Z,102193.56
2017-10-14T07:31:24.387Z,102189.64
2017-10-14T07:33:52.738Z,102193.18
2017-10-14T07:36:21.067Z,102198.52
2017-10-14T07:38:50.207Z,102199.70
2017-10-14T07:41:19.399Z,102210.27
2017-10-14T07:43:47.761Z,102201.56
2017-10-14T07:46:16.327Z,102198.63
2017-10-14T07:48:45.045Z,102201.67
2017-10-14T07:51:14.350Z,102203.63
2017-10-14T07:53:43.407Z,102210.31
2017-10-14T07:56:11.787Z,102208.60
2017-10-14T07:58:41.032Z,102206.00
2017-10-14T08:01:09.724Z,102202.81
2017-10-14T08:03:38.086Z,102202.63
2017-10-14T08:06:07.571Z,102197.46
2017-10-14T08:08:36.065Z,102210.23
2017-10-14T08:11:04.409Z,102201.67
2017-10-14T08:13:32.751Z,102204.45
2017-10-14T08:16:01.813Z,102201.05
2017-10-14T08:18:30.979Z,102206.02
2017-10-14T08:21:00.583Z,102210.81
2017-10-14T08:23:29.845Z,102209.09
2017-10-14T08:25:59.117Z,102212.05
2017-10-14T08:28:27.462Z,102211.44
2017-10-14T08:30:56.387Z,102220.20
2017-10-14T08:33:25.481Z,102220.86
2017-10-14T08:35:55.326Z,102212.42
2017-10-14T08:38:23.725Z,102209.69
2017-10-14T08:40:54.738Z,102212.71
2017-10-14T08:43:24.053Z,102215.98
2017-10-14T08:45:52.487Z,102223.86
2017-10-14T08:48:22.559Z,102226.55
2017-10-14T08:50:51.539Z,102235.83
2017-10-14T08:53:21.143Z,102234.15
2017-10-14T08:55:51.259Z,102233.34
2017-10-14T08:58:22.156Z,102236.78
2017-10-14T09:00:51.572Z,102226.11
2017-10-14T09:03:21.360Z,102220.28
2017-10-14T09:05:49.998Z,102221.59
2017-10-14T09:08:18.352Z,102218.28
2017-10-14T09:10:46.831Z,102218.52
2017-10-14T09:13:16.366Z,102221.75
2017-10-14T09:15:44.729Z,102220.52
2017-10-14T09:18:13.913Z,102223.41
2017-10-14T09:20:44.310Z,102226.78
2017-10-14T09:23:12.817Z,102226.55
2017-10-14T09:25:42.063Z,102222.45
2017-10-14T09:28:11.249Z,102230.69
2017-10-14T09:30:39.597Z,102231.80
2017-10-14T09:33:09.466Z,102237.39
2017-10-14T09:35:37.953Z,102236.97
2017-10-14T09:38:06.337Z,102241.77
2017-10-14T09:40:35.677Z,102249.27
2017-10-14T09:43:04.831Z,102245.05
2017-10-14T09:45:33.208Z,102254.78
2017-10-14T09:48:01.568Z,102250.13
2017-10-14T09:50:30.890Z,102263.03
2017-10-14T09:52:59.232Z,102260.28
2017-10-14T09:55:30.100Z,102257.63
2017-10-14T09:57:59.314Z,102260.66
2017-10-14T10:00:27.679Z,102259.37
2017-10-14T10:02:56.016Z,102258.59
2017-10-14T10:05:24.633Z,102257.79
2017-10-14T10:07:53.901Z,102252.94
2017-10-14T10:10:22.499Z,102260.63
2017-10-14T10:12:51.650Z,102260.03
2017-10-14T10:15:20.299Z,102258.42
2017-10-14T10:17:48.659Z,102260.46
2017-10-14T10:20:20.400Z,102257.37
2017-10-14T10:22:50.521Z,102256.06
2017-10-14T10:25:19.723Z,102257.15
2017-10-14T10:27:48.881Z,102249.11
2017-10-14T10:30:19.776Z,102246.16
2017-10-14T10:32:49.146Z,102246.18
2017-10-14T10:35:18.852Z,102240.27
2017-10-14T10:37:50.478Z,102243.67
2017-10-14T10:40:19.067Z,102246.30
2017-10-14T10:42:48.437Z,102245.30
2017-10-14T10:45:17.708Z,102240.12
2017-10-14T10:47:46.835Z,102241.02
2017-10-14T10:50:15.168Z,102226.00
2017-10-14T10:52:45.375Z,102223.02
2017-10-14T10:55:14.743Z,102221.93
2017-10-14T10:57:43.112Z,102221.89
2017-10-14T11:00:12.129Z,102225.88
2017-10-14T11:02:41.763Z,102233.23
2017-10-14T11:05:10.117Z,102236.18
2017-10-14T11:07:39.679Z,102237.45
2017-10-14T11:10:08.046Z,102237.16
2017-10-14T11:12:38.172Z,102232.34
2017-10-14T11:15:10.476Z,102241.66
2017-10-14T11:17:39.392Z,102239.27
2017-10-14T11:20:08.629Z,102237.97
2017-10-14T11:22:41.823Z,102245.41
2017-10-14T11:25:11.210Z,102245.86
2017-10-14T11:27:40.491Z,102244.24
2017-10-14T11:30:09.721Z,102248.78
2017-10-14T11:32:38.109Z,102247.74
2017-10-14T11:35:08.007Z,102250.81
2017-10-14T11:37:36.384Z,102249.98
2017-10-14T11:40:06.269Z,102244.78
2017-10-14T11:42:35.292Z,102242.80
2017-10-14T11:45:04.418Z,102245.47
2017-10-14T11:47:32.805Z,102243.52
2017-10-14T11:50:01.465Z,102238.55
2017-10-14T11:52:29.841Z,102234.08
2017-10-14T11:54:59.418Z,102230.36
2017-10-14T11:57:28.635Z,102227.55
2017-10-14T11:59:57.915Z,102226.47
2017-10-14T12:02:27.070Z,102226.00
2017-10-14T12:04:57.360Z,102232.10
2017-10-14T12:07:27.363Z,102234.70
2017-10-14T12:09:56.271Z,102240.59
2017-10-14T12:12:25.483Z,102238.52
2017-10-14T12:14:54.632Z,102239.23
2017-10-14T12:17:24.689Z,102236.45
2017-10-14T12:19:54.050Z,102236.55
2017-10-14T12:22:23.083Z,102241.48
2017-10-14T12:24:52.756Z,102245.30
2017-10-14T12:27:21.230Z,102244.08
2017-10-14T12:29:50.595Z,102242.76
2017-10-14T12:32:21.194Z,102252.22
2017-10-14T12:34:51.426Z,102245.60
2017-10-14T12:37:19.870Z,102255.04
2017-10-14T12:39:49.002Z,102256.72
2017-10-14T12:42:17.877Z,102249.86
2017-10-14T12:44:46.955Z,102261.56
2017-10-14T12:47:17.154Z,102259.02
2017-10-14T12:49:45.733Z,102262.52
2017-10-14T12:52:15.345Z,102259.83
2017-10-14T12:54:43.697Z,102271.36
2017-10-14T12:57:12.066Z,102267.08
2017-10-14T12:59:40.837Z,102256.88
2017-10-14T13:02:09.227Z,102255.05
2017-10-14T13:04:38.157Z,102247.84
2017-10-14T13:07:06.513Z,102245.74
2017-10-14T13:09:36.337Z,102250.34
2017-10-14T13:12:06.266Z,102246.64
2017-10-14T13:14:35.298Z,102247.23
2017-10-14T13:17:04.076Z,102246.66
2017-10-14T13:19:33.148Z,102236.61
2017-10-14T13:22:02.212Z,102245.19
2017-10-14T13:24:31.578Z,102246.66
2017-10-14T13:27:00.476Z,102251.33
2017-10-14T13:29:29.076Z,102249.05
2017-10-14T13:31:58.491Z,102239.69
2017-10-14T13:34:27.647Z,102243.97
2017-10-14T13:36:56.006Z,102237.88
2017-10-14T13:39:24.373Z,102228.39
2017-10-14T13:41:52.770Z,102239.75
2017-10-14T13:44:21.690Z,102235.93
2017-10-14T13:46:50.054Z,102233.13
2017-10-14T13:49:18.437Z,102232.28
2017-10-14T13:51:46.790Z,102224.80
2017-10-14T13:54:15.963Z,102220.72
2017-10-14T13:56:46.434Z,102216.64
2017-10-14T13:59:14.828Z,102212.31
2017-10-14T14:01:43.170Z,102212.22
2017-10-14T14:04:12.155Z,102213.45
2017-10-14T14:06:41.409Z,102202.42
2017-10-14T14:09:10.795Z,102198.30
2017-10-14T14:11:39.209Z,102201.59
2017-10-14T14:14:09.034Z,102197.99
2017-10-14T14:16:38.286Z,102201.21
2017-10-14T14:19:08.500Z,102207.78
2017-10-14T14:21:37.665Z,102207.14
2017-10-14T14:24:06.934Z,102211.17
2017-10-14T14:26:36.884Z,102216.36
2017-10-14T14:29:06.728Z,102217.79
2017-10-14T14:31:35.081Z,102221.95
2017-10-14T14:34:03.462Z,102223.02
2017-10-14T14:36:32.556Z,102232.56
2017-10-14T14:39:01.466Z,102228.08
2017-10-14T14:41:31.791Z,102225.66
2017-10-14T14:44:01.510Z,102227.39
2017-10-14T14:46:31.372Z,102226.69
2017-10-14T14:49:00.372Z,102243.16
2017-10-14T14:51:28.753Z,102249.23
2017-10-14T14:53:57.116Z,102246.80
2017-10-14T14:56:25.492Z,102251.40
2017-10-14T14:58:54.610Z,102244.66
2017-10-14T15:01:23.753Z,102248.98
2017-10-14T15:03:53.238Z,102253.06
2017-10-14T15:06:21.602Z,102258.43
2017-10-14T15:08:51.471Z,102260.71
2017-10-14T15:11:19.852Z,102255.66
2017-10-14T15:13:48.213Z,102264.34
2017-10-14T15:16:16.599Z,102265.61
2017-10-14T15:18:45.408Z,102277.70
2017-10-14T15:21:14.028Z,102286.41
2017-10-14T15:23:42.416Z,102291.74
2017-10-14T15:26:11.920Z,102294.17
2017-10-14T15:28:41.307Z,102297.66
2017-10-14T15:31:11.264Z,102305.15
2017-10-14T15:33:40.461Z,102304.80
2017-10-14T15:36:08.803Z,102315.45
2017-10-14T15:38:39.435Z,102312.63
2017-10-14T15:41:08.620Z,102313.84
2017-10-14T15:43:36.987Z,102310.86
2017-10-14T15:46:06.106Z,102305.45
2017-10-14T15:48:36.498Z,102312.67
2017-10-14T15:51:06.447Z,102306.08
2017-10-14T15:53:35.529Z,102313.76
2017-10-14T15:56:04.707Z,102312.19
2017-10-14T15:58:33.304Z,102317.48
2017-10-14T16:01:01.668Z,102324.56
2017-10-14T16:03:30.120Z,102329.11
2017-10-14T16:05:59.379Z,102335.95
2017-10-14T16:08:28.864Z,102337.80
2017-10-14T16:10:57.202Z,102340.36
2017-10-14T16:13:25.548Z,102332.72
2017-10-14T16:15:54.719Z,102334.20
2017-10-14T16:18:23.767Z,102338.51
2017-10-14T16:20:53.117Z,102342.27
2017-10-14T16:23:22.205Z,102341.54
2017-10-14T16:25:50.567Z,102339.31
2017-10-14T16:28:18.929Z,102343.64
2017-10-14T16:30:47.470Z,102336.66
2017-10-14T16:33:15.930Z,102335.42
2017-10-14T16:35:44.300Z,102327.93
2017-10-14T16:38:12.687Z,102327.73
2017-10-14T16:40:42.660Z,102326.98
2017-10-14T16:43:12.949Z,102317.49
2017-10-14T16:45:41.306Z,102323.84
2017-10-14T16:48:15.497Z,102320.42
2017-10-14T16:50:44.690Z,102320.00
2017-10-14T16:53:13.847Z,102320.86
2017-10-14T16:55:42.438Z,102333.61
2017-10-14T16:58:11.771Z,102328.48
2017-10-14T17:00:40.937Z,102333.12
2017-10-14T17:03:09.315Z,102336.38
2017-10-14T17:05:39.190Z,102332.83
2017-10-14T17:08:08.549Z,102339.80
2017-10-14T17:10:37.771Z,102334.30
2017-10-14T17:13:06.875Z,102341.93
2017-10-14T17:15:36.261Z,102343.64
2017-10-14T17:18:05.776Z,102348.47
2017-10-14T17:20:34.354Z,102337.75
2017-10-14T17:23:02.709Z,102345.02
2017-10-14T17:25:31.110Z,102344.45
2017-10-14T17:28:00.947Z,102339.88
2017-10-14T17:30:29.478Z,102344.10
2017-10-14T17:33:00.644Z,102342.24
2017-10-14T17:35:29.958Z,102349.69
2017-10-14T17:37:58.372Z,102355.41
2017-10-14T17:40:27.529Z,102358.25
2017-10-14T17:42:56.039Z,102354.37
2017-10-14T17:45:26.103Z,102350.28
2017-10-14T17:47:55.811Z,102354.39
2017-10-14T17:50:24.162Z,102350.56
2017-10-14T17:52:52.821Z,102345.20
2017-10-14T17:55:21.487Z,102347.59
2017-10-14T17:57:50.855Z,102341.50
2017-10-14T18:00:19.588Z,102349.34
2017-10-14T18:02:48.374Z,102347.15
2017-10-14T18:05:17.417Z,102343.94
2017-10-14T18:07:46.631Z,102343.46
2017-10-14T18:10:15.022Z,102338.25
2017-10-14T18:12:45.103Z,102335.76
2017-10-14T18:15:13.704Z,102336.53
2017-10-14T18:17:43.098Z,102333.37
2017-10-14T18:20:12.024Z,102340.56
2017-10-14T18:22:40.646Z,102348.72
2017-10-14T18:25:09.022Z,102345.69
2017-10-14T18:27:37.407Z,102341.06
2017-10-14T18:30:06.985Z,102351.33
2017-10-14T18:32:35.661Z,102346.70
2017-10-14T18:35:04.960Z,102341.95
2017-10-14T18:37:34.084Z,102338.53
2017-10-14T18:40:04.335Z,102344.50
2017-10-14T18:42:32.929Z,102346.38
2017-10-14T18:45:03.070Z,102347.31
2017-10-14T18:47:31.450Z,102357.02
2017-10-14T18:49:59.806Z,102350.40
2017-10-14T18:52:28.161Z,102347.89
2017-10-14T18:54:57.793Z,102343.38
2017-10-14T18:57:26.886Z,102347.83
2017-10-14T18:59:55.558Z,102347.04
2017-10-14T19:02:23.990Z,102349.61
2017-10-14T19:04:53.929Z,102353.56
2017-10-14T19:07:22.324Z,102359.31
2017-10-14T19:09:52.200Z,102359.47
2017-10-14T19:12:20.852Z,102351.08
2017-10-14T19:14:49.250Z,102353.80
2017-10-14T19:17:17.642Z,102358.33
2017-10-14T19:19:46.822Z,102358.93
2017-10-14T19:22:16.578Z,102365.40
2017-10-14T19:24:45.982Z,102366.59
2017-10-14T19:27:14.345Z,102370.86
2017-10-14T19:29:44.446Z,102367.41
2017-10-14T19:32:14.508Z,102375.36
2017-10-14T19:34:43.010Z,102377.77
2017-10-14T19:37:12.079Z,102377.70
2017-10-14T19:39:40.484Z,102373.05
2017-10-14T19:42:08.906Z,102370.02
2017-10-14T19:44:37.318Z,102367.71
2017-10-14T19:47:06.741Z,102377.59
2017-10-14T19:49:35.113Z,102379.14
2017-10-14T19:52:04.923Z,102375.70
2017-10-14T19:54:34.433Z,102376.38
2017-10-14T19:57:03.726Z,102371.75
2017-10-14T19:59:32.094Z,102363.02
2017-10-14T20:02:01.666Z,102371.00
2017-10-14T20:04:32.157Z,102367.23
2017-10-14T20:07:00.530Z,102379.05
2017-10-14T20:09:29.216Z,102372.80
2017-10-14T20:11:57.590Z,102367.82
2017-10-14T20:14:25.945Z,102368.68
2017-10-14T20:16:54.657Z,102370.30
2017-10-14T20:19:23.011Z,102358.30
2017-10-14T20:21:52.946Z,102363.66
2017-10-14T20:24:23.116Z,102366.50
2017-10-14T20:26:52.708Z,102366.21
2017-10-14T20:29:21.828Z,102368.51
2017-10-14T20:31:51.614Z,102364.45
2017-10-14T20:34:20.766Z,102367.09
2017-10-14T20:36:50.695Z,102372.20
2017-10-14T20:39:19.364Z,102378.33
2017-10-14T20:41:47.745Z,102378.61
2017-10-14T20:44:18.286Z,102381.27
2017-10-14T20:46:48.613Z,102379.62
2017-10-14T20:49:17.518Z,102380.49
2017-10-14T20:51:46.699Z,102390.83
2017-10-14T20:54:16.047Z,102391.47
2017-10-14T20:56:44.403Z,102384.38
2017-10-14T20:59:13.047Z,102382.77
2017-10-14T21:01:43.145Z,102385.34
2017-10-14T21:04:11.524Z,102378.44
2017-10-14T21:06:40.678Z,102379.45
2017-10-14T21:09:09.034Z,102391.60
2017-10-14T21:11:38.517Z,102385.36
2017-10-14T21:14:07.056Z,102385.30
2017-10-14T21:16:36.867Z,102382.88
2017-10-14T21:19:05.675Z,102386.46
2017-10-14T21:21:35.004Z,102382.14
2017-10-14T21:24:03.385Z,102373.22
2017-10-14T21:26:32.569Z,102372.51
2017-10-14T21:29:01.803Z,102370.41
2017-10-14T21:31:31.791Z,102370.98
2017-10-14T21:34:00.979Z,102368.45
2017-10-14T21:36:32.197Z,102357.14
2017-10-14T21:39:00.742Z,102364.78
2017-10-14T21:41:30.584Z,102355.87
2017-10-14T21:44:00.896Z,102356.22
2017-10-14T21:46:31.671Z,102353.28
2017-10-14T21:49:00.059Z,102355.94
2017-10-14T21:51:28.429Z,102361.03
2017-10-14T21:53:58.324Z,102357.64
2017-10-14T21:56:27.242Z,102350.72
2017-10-14T21:58:55.623Z,102349.69
2017-10-14T22:01:25.102Z,102349.13
2017-10-14T22:03:53.468Z,102357.25
2017-10-14T22:06:22.489Z,102355.84
2017-10-14T22:08:50.906Z,102350.30
2017-10-14T22:11:20.203Z,102347.69
2017-10-14T22:13:50.147Z,102353.42
2017-10-14T22:16:19.830Z,102355.73
2017-10-14T22:18:48.855Z,102357.88
2017-10-14T22:21:19.544Z,102357.09
2017-10-14T22:23:48.810Z,102354.27
2017-10-14T22:26:17.616Z,102352.73
2017-10-14T22:28:47.256Z,102357.84
2017-10-14T22:31:15.993Z,102361.23
2017-10-14T22:33:44.802Z,102356.91
2017-10-14T22:36:13.349Z,102359.67
2017-10-14T22:38:42.418Z,102361.52
2017-10-14T22:41:11.551Z,102357.28
2017-10-14T22:43:40.219Z,102366.55
2017-10-14T22:46:09.410Z,102362.06
2017-10-14T22:48:39.817Z,102365.30
2017-10-14T22:51:09.352Z,102363.58
2017-10-14T22:53:38.334Z,102363.43
2017-10-14T22:56:07.359Z,102363.51
2017-10-14T22:58:35.734Z,102365.00
2017-10-14T23:01:04.184Z,102369.96
2017-10-14T23:03:32.526Z,102366.80
2017-10-14T23:06:00.983Z,102366.20
2017-10-14T23:08:30.218Z,102363.32
2017-10-14T23:10:59.373Z,102361.59
2017-10-14T23:13:28.649Z,102364.47
2017-10-14T23:15:57.039Z,102370.47
2017-10-14T23:18:26.163Z,102377.78
2017-10-14T23:20:55.531Z,102378.42
2017-10-14T23:23:24.001Z,102379.85
2017-10-14T23:25:53.154Z,102374.47
2017-10-14T23:28:21.498Z,102375.30
2017-10-14T23:30:49.951Z,102377.79
2017-10-14T23:33:18.302Z,102375.03
2017-10-14T23:35:46.656Z,102372.06
2017-10-14T23:38:15.033Z,102379.80
2017-10-14T23:40:43.378Z,102386.46
2017-10-14T23:43:11.734Z,102384.12
2017-10-14T23:45:40.131Z,102376.55
2017-10-14T23:48:09.281Z,102370.80
2017-10-14T23:50:38.322Z,102377.01
2017-10-14T23:53:07.628Z,102376.23
2017-10-14T23:55:36.752Z,102373.47
2017-10-14T23:58:05.113Z,102377.64
